Time,TemperatureF,DewpointF,PressureIn,WindDirection,WindDirectionDegrees,WindSpeedMPH,WindSpeedGustMPH,Humidity,HourlyPrecipIn,Conditions,Clouds,dailyrainin,SoftwareType,DateUTC
2013-09-16 00:00:00,50.7,42.4,29.55,WNW,290,20.0,31.0,73,0.00,RA,RA,0.00,WeatherDisplay:10.37,2013-09-15 23:00:00,
2013-09-16 00:10:00,51.3,42.9,29.55,NW,308,25.0,35.0,73,0.00,CLR,CLR,0.00,WeatherDisplay:10.37,2013-09-15 23:10:00,
2013-09-16 00:20:00,51.6,42.9,29.55,NW,305,18.0,36.0,72,0.00,CLR,CLR,0.00,WeatherDisplay:10.37,2013-09-15 23:20:00,
2013-09-16 00:30:00,51.6,42.2,29.54,WNW,284,16.0,26.0,70,0.00,CLR,CLR,0.00,WeatherDisplay:10.37,2013-09-15 23:30:00,
2013-09-16 00:40:00,51.4,40.8,29.54,NW,307,18.0,27.0,67,0.00,CLR,CLR,0.00,WeatherDisplay:10.37,2013-09-15 23:40:00,
2013-09-16 00:50:00,51.9,41.2,29.53,NW,305,20.0,29.0,67,0.00,CLR,CLR,0.00,WeatherDisplay:10.37,2013-09-15 23:50:00,
2013-09-16 01:00:00,52.2,41.5,29.53,WNW,296,22.0,32.0,67,0.04,RA,RA,0.04,WeatherDisplay:10.37,2013-09-16 00:00:00,
2013-09-16 01:10:00,52.2,41.9,29.53,WNW,295,21.0,30.0,68,0.00,CLR,CLR,0.04,WeatherDisplay:10.37,2013-09-16 00:10:00,
2013-09-16 01:20:00,52.0,41.7,29.54,WNW,293,23.0,39.0,68,0.01,RA,RA,0.05,WeatherDisplay:10.37,2013-09-16 00:20:00,
2013-09-16 01:30:00,50.7,42.3,29.54,WNW,287,24.0,39.0,73,0.09,RA,RA,0.14,WeatherDisplay:10.37,2013-09-16 00:30:00,
2013-09-16 01:40:00,50.4,42.4,29.54,NW,308,21.0,31.0,74,0.00,CLR,CLR,0.14,WeatherDisplay:10.37,2013-09-16 00:40:00,
2013-09-16 01:50:00,50.6,42.6,29.53,NW,306,16.0,26.0,74,0.00,CLR,CLR,0.14,WeatherDisplay:10.37,2013-09-16 00:50:00,
2013-09-16 02:00:00,51.1,42.7,29.53,WNW,299,18.0,28.0,73,0.00,CLR,CLR,0.14,WeatherDisplay:10.37,2013-09-16 01:00:00,
2013-09-16 02:10:00,51.1,42.7,29.53,NW,305,21.0,29.0,73,0.00,CLR,CLR,0.14,WeatherDisplay:10.37,2013-09-16 01:10:00,
2013-09-16 02:20:00,50.9,42.6,29.53,WNW,296,21.0,32.0,73,0.00,CLR,CLR,0.14,WeatherDisplay:10.37,2013-09-16 01:20:00,
2013-09-16 02:30:00,50.5,42.9,29.53,WNW,293,16.0,31.0,75,0.00,CLR,CLR,0.14,WeatherDisplay:10.37,2013-09-16 01:30:00,
2013-09-16 02:40:00,49.9,43.0,29.53,WNW,290,26.0,36.0,77,0.00,CLR,CLR,0.14,WeatherDisplay:10.37,2013-09-16 01:40:00,
2013-09-16 02:50:00,50.1,40.7,29.53,NW,314,21.0,36.0,70,0.01,RA,RA,0.15,WeatherDisplay:10.37,2013-09-16 01:50:00,
2013-09-16 03:00:00,50.2,41.1,29.53,WNW,300,22.0,35.0,71,0.00,CLR,CLR,0.15,WeatherDisplay:10.37,2013-09-16 02:00:00,
2013-09-16 03:10:00,50.5,42.2,29.53,NW,312,22.0,34.0,73,0.00,CLR,CLR,0.15,WeatherDisplay:10.37,2013-09-16 02:10:00,
2013-09-16 03:20:00,50.0,42.0,29.51,WNW,296,21.0,32.0,74,0.00,CLR,CLR,0.15,WeatherDisplay:10.37,2013-09-16 02:20:00,
2013-09-16 03:30:00,50.5,42.2,29.51,WNW,295,24.0,33.0,73,0.00,CLR,CLR,0.15,WeatherDisplay:10.37,2013-09-16 02:30:00,
2013-09-16 03:40:00,50.5,41.1,29.51,WNW,291,20.0,31.0,70,0.00,CLR,CLR,0.15,WeatherDisplay:10.37,2013-09-16 02:40:00,
2013-09-16 03:50:00,50.5,41.1,29.51,NW,314,16.0,28.0,70,0.00,CLR,CLR,0.15,WeatherDisplay:10.37,2013-09-16 02:50:00,
2013-09-16 04:00:00,51.1,41.6,29.51,WNW,294,23.0,32.0,70,0.00,CLR,CLR,0.15,WeatherDisplay:10.37,2013-09-16 03:00:00,
2013-09-16 04:10:00,50.9,41.5,29.51,WNW,289,18.0,26.0,70,0.00,CLR,CLR,0.15,WeatherDisplay:10.37,2013-09-16 03:10:00,
2013-09-16 04:20:00,50.5,41.8,29.52,WNW,300,21.0,32.0,72,0.00,CLR,CLR,0.15,WeatherDisplay:10.37,2013-09-16 03:20:00,
2013-09-16 04:30:00,50.3,42.3,29.51,NW,306,25.0,36.0,74,0.00,CLR,CLR,0.15,WeatherDisplay:10.37,2013-09-16 03:30:00,
2013-09-16 04:40:00,50.7,42.4,29.51,NW,314,23.0,33.0,73,0.00,CLR,CLR,0.15,WeatherDisplay:10.37,2013-09-16 03:40:00,
2013-09-16 04:50:00,50.2,42.2,29.51,WNW,302,21.0,29.0,74,0.00,CLR,CLR,0.15,WeatherDisplay:10.37,2013-09-16 03:50:00,
2013-09-16 05:00:00,50.4,42.4,29.51,NW,304,21.0,30.0,74,0.00,CLR,CLR,0.15,WeatherDisplay:10.37,2013-09-16 04:00:00,
2013-09-16 05:10:00,50.5,42.2,29.52,WNW,303,20.0,30.0,73,0.00,CLR,CLR,0.15,WeatherDisplay:10.37,2013-09-16 04:10:00,
2013-09-16 05:20:00,50.5,41.5,29.52,WNW,294,23.0,35.0,71,0.00,CLR,CLR,0.15,WeatherDisplay:10.37,2013-09-16 04:20:00,
2013-09-16 05:30:00,50.5,42.2,29.52,NW,309,20.0,32.0,73,0.00,CLR,CLR,0.15,WeatherDisplay:10.37,2013-09-16 04:30:00,
2013-09-16 05:40:00,51.3,42.2,29.52,NW,308,18.0,33.0,71,0.00,CLR,CLR,0.15,WeatherDisplay:10.37,2013-09-16 04:40:00,
2013-09-16 05:50:00,51.3,41.1,29.53,NW,318,17.0,28.0,68,0.00,CLR,CLR,0.15,WeatherDisplay:10.37,2013-09-16 04:50:00,
2013-09-16 06:00:00,50.8,42.8,29.53,NW,314,12.0,39.0,74,0.00,CLR,CLR,0.15,WeatherDisplay:10.37,2013-09-16 05:00:00,
2013-09-16 06:10:00,52.3,42.5,29.53,NW,324,9.0,23.0,69,0.00,CLR,CLR,0.15,WeatherDisplay:10.37,2013-09-16 05:10:00,
2013-09-16 06:20:00,52.7,42.0,29.53,WNW,297,10.0,22.0,67,0.00,CLR,CLR,0.15,WeatherDisplay:10.37,2013-09-16 05:20:00,
2013-09-16 06:30:00,53.2,42.2,29.53,NW,316,12.0,20.0,66,0.00,CLR,CLR,0.15,WeatherDisplay:10.37,2013-09-16 05:30:00,
2013-09-16 06:40:00,54.1,42.2,29.54,NW,306,10.0,20.0,64,0.00,CLR,CLR,0.15,WeatherDisplay:10.37,2013-09-16 05:40:00,
2013-09-16 06:50:00,51.6,42.2,29.53,NW,315,13.0,30.0,70,0.01,RA,RA,0.17,WeatherDisplay:10.37,2013-09-16 05:50:00,
2013-09-16 07:00:00,52.5,41.9,29.53,North,356,14.0,24.0,67,0.00,CLR,CLR,0.17,WeatherDisplay:10.37,2013-09-16 06:00:00,
2013-09-16 07:10:00,53.0,41.2,29.54,NNW,336,12.0,26.0,64,0.00,CLR,CLR,0.17,WeatherDisplay:10.37,2013-09-16 06:10:00,
2013-09-16 07:20:00,53.9,41.6,29.55,WNW,299,16.0,27.0,63,0.00,CLR,CLR,0.17,WeatherDisplay:10.37,2013-09-16 06:20:00,
2013-09-16 07:30:00,52.0,41.8,29.55,NW,316,13.0,33.0,68,0.00,CLR,CLR,0.17,WeatherDisplay:10.37,2013-09-16 06:30:00,
2013-09-16 07:40:00,53.4,41.9,29.55,NW,315,6.0,30.0,65,0.00,CLR,CLR,0.17,WeatherDisplay:10.37,2013-09-16 06:40:00,
2013-09-16 07:50:00,53.6,42.2,29.55,NW,314,10.0,18.0,65,0.00,CLR,CLR,0.17,WeatherDisplay:10.37,2013-09-16 06:50:00,
2013-09-16 08:00:00,53.1,41.6,29.55,NW,304,12.0,30.0,65,0.00,CLR,CLR,0.17,WeatherDisplay:10.37,2013-09-16 07:00:00,
2013-09-16 08:10:00,53.6,42.1,29.55,NW,307,7.0,21.0,65,0.00,CLR,CLR,0.17,WeatherDisplay:10.37,2013-09-16 07:10:00,
2013-09-16 08:20:00,53.6,41.7,29.56,North,3,6.0,15.0,64,0.00,CLR,CLR,0.17,WeatherDisplay:10.37,2013-09-16 07:20:00,
2013-09-16 08:30:00,55.7,43.3,29.56,WNW,292,5.0,15.0,63,0.00,CLR,CLR,0.17,WeatherDisplay:10.37,2013-09-16 07:30:00,
2013-09-16 08:40:00,55.5,42.7,29.56,NW,317,9.0,15.0,62,0.00,CLR,CLR,0.17,WeatherDisplay:10.37,2013-09-16 07:40:00,
2013-09-16 08:50:00,55.9,42.7,29.56,WNW,298,9.0,17.0,61,0.00,CLR,CLR,0.17,WeatherDisplay:10.37,2013-09-16 07:50:00,
2013-09-16 09:00:00,54.0,42.5,29.56,NW,321,12.0,29.0,65,0.00,CLR,CLR,0.17,WeatherDisplay:10.37,2013-09-16 08:00:00,
2013-09-16 09:10:00,54.7,41.9,29.57,WNW,294,13.0,31.0,62,0.00,CLR,CLR,0.17,WeatherDisplay:10.37,2013-09-16 08:10:00,
2013-09-16 09:20:00,52.9,42.2,29.56,NW,322,20.0,31.0,67,0.01,RA,RA,0.18,WeatherDisplay:10.37,2013-09-16 08:20:00,
2013-09-16 09:30:00,54.9,42.9,29.56,WNW,298,13.0,24.0,64,0.00,CLR,CLR,0.18,WeatherDisplay:10.37,2013-09-16 08:30:00,
2013-09-16 09:40:00,56.7,43.8,29.56,NW,314,12.0,28.0,62,0.00,CLR,CLR,0.18,WeatherDisplay:10.37,2013-09-16 08:40:00,
2013-09-16 09:50:00,57.0,43.7,29.56,WNW,303,10.0,23.0,61,0.00,CLR,CLR,0.18,WeatherDisplay:10.37,2013-09-16 08:50:00,
2013-09-16 10:00:00,57.4,43.2,29.57,NNW,334,9.0,27.0,59,0.00,CLR,CLR,0.18,WeatherDisplay:10.37,2013-09-16 09:00:00,
2013-09-16 10:10:00,58.5,44.2,29.56,NW,307,9.0,18.0,59,0.00,CLR,CLR,0.18,WeatherDisplay:10.37,2013-09-16 09:10:00,
2013-09-16 10:20:00,58.4,44.1,29.57,NW,315,8.0,15.0,59,0.00,CLR,CLR,0.18,WeatherDisplay:10.37,2013-09-16 09:20:00,
2013-09-16 10:30:00,57.4,41.8,29.57,NW,320,32.0,46.0,56,0.11,RA,RA,0.28,WeatherDisplay:10.37,2013-09-16 09:30:00,
2013-09-16 10:40:00,54.7,44.0,29.57,NW,304,15.0,46.0,67,0.02,RA,RA,0.31,WeatherDisplay:10.37,2013-09-16 09:40:00,
2013-09-16 10:50:00,55.4,42.6,29.57,WNW,288,18.0,31.0,62,0.00,CLR,CLR,0.31,WeatherDisplay:10.37,2013-09-16 09:50:00,
2013-09-16 11:00:00,57.3,42.7,29.57,WNW,287,13.0,29.0,58,0.00,CLR,CLR,0.31,WeatherDisplay:10.37,2013-09-16 10:00:00,
2013-09-16 11:10:00,57.7,42.1,29.57,NW,322,20.0,35.0,56,0.06,RA,RA,0.37,WeatherDisplay:10.37,2013-09-16 10:10:00,
2013-09-16 11:20:00,56.7,42.5,29.58,NW,317,16.0,35.0,59,0.00,CLR,CLR,0.37,WeatherDisplay:10.37,2013-09-16 10:20:00,
2013-09-16 11:30:00,56.5,43.6,29.58,NNW,327,8.0,31.0,62,0.01,RA,RA,0.38,WeatherDisplay:10.37,2013-09-16 10:30:00,
2013-09-16 11:40:00,57.9,42.7,29.58,NW,324,14.0,27.0,57,0.00,CLR,CLR,0.38,WeatherDisplay:10.37,2013-09-16 10:40:00,
2013-09-16 11:50:00,58.6,43.4,29.58,NW,316,21.0,35.0,57,0.00,CLR,CLR,0.38,WeatherDisplay:10.37,2013-09-16 10:50:00,
2013-09-16 12:00:00,55.3,42.9,29.58,NW,316,15.0,35.0,63,0.02,RA,RA,0.40,WeatherDisplay:10.37,2013-09-16 11:00:00,
2013-09-16 12:10:00,58.3,44.1,29.58,NW,318,13.0,30.0,59,0.00,CLR,CLR,0.40,WeatherDisplay:10.37,2013-09-16 11:10:00,
2013-09-16 12:20:00,57.9,43.7,29.59,NW,322,18.0,29.0,59,0.00,CLR,CLR,0.40,WeatherDisplay:10.37,2013-09-16 11:20:00,
2013-09-16 12:30:00,54.5,42.6,29.59,WNW,294,26.0,38.0,64,0.01,RA,RA,0.41,WeatherDisplay:10.37,2013-09-16 11:30:00,
2013-09-16 12:40:00,55.9,43.0,29.58,NW,309,21.0,33.0,62,0.00,,,0.41,WeatherDisplay:10.37,2013-09-16 11:40:00,
2013-09-16 12:50:00,57.9,43.2,29.58,WNW,296,22.0,35.0,58,0.00,CLR,CLR,0.41,WeatherDisplay:10.37,2013-09-16 11:50:00,
2013-09-16 13:00:00,58.6,43.8,29.58,NW,307,23.0,35.0,58,0.00,CLR,CLR,0.41,WeatherDisplay:10.37,2013-09-16 12:00:00,
2013-09-16 13:10:00,57.2,42.5,29.58,WNW,300,28.0,39.0,58,0.06,RA,RA,0.47,WeatherDisplay:10.37,2013-09-16 12:10:00,
2013-09-16 13:20:00,57.7,42.1,29.58,NW,308,22.0,46.0,56,0.17,RA,RA,0.64,WeatherDisplay:10.37,2013-09-16 12:20:00,
2013-09-16 13:30:00,58.7,42.1,29.59,NNW,346,21.0,37.0,54,0.00,CLR,CLR,0.64,WeatherDisplay:10.37,2013-09-16 12:30:00,
2013-09-16 13:40:00,57.4,49.2,29.90,NW,320,30.0,40.0,74,0.07,RA,RA,0.71,WeatherDisplay:10.37,2013-09-16 12:40:00,
2013-09-16 13:50:00,56.9,41.8,29.59,WNW,302,23.0,41.0,57,0.01,RA,RA,0.72,WeatherDisplay:10.37,2013-09-16 12:50:00,
2013-09-16 14:00:00,58.9,43.2,29.59,NW,305,23.0,37.0,56,0.01,RA,RA,0.73,WeatherDisplay:10.37,2013-09-16 13:00:00,
2013-09-16 14:10:00,57.1,42.9,29.59,NW,312,18.0,43.0,59,0.08,RA,RA,0.81,WeatherDisplay:10.37,2013-09-16 13:10:00,
2013-09-16 14:20:00,58.8,43.6,29.60,NW,314,13.0,29.0,57,0.00,CLR,CLR,0.81,WeatherDisplay:10.37,2013-09-16 13:20:00,
2013-09-16 14:30:00,59.5,42.4,29.60,WNW,298,18.0,30.0,53,0.00,CLR,CLR,0.81,WeatherDisplay:10.37,2013-09-16 13:30:00,
2013-09-16 14:40:00,60.4,43.1,29.59,WNW,300,15.0,28.0,53,0.00,CLR,CLR,0.81,WeatherDisplay:10.37,2013-09-16 13:40:00,
2013-09-16 14:50:00,61.4,42.1,29.60,WNW,297,20.0,33.0,49,0.00,CLR,CLR,0.81,WeatherDisplay:10.37,2013-09-16 13:50:00,
2013-09-16 15:00:00,58.9,40.3,29.60,WNW,302,21.0,37.0,50,0.01,RA,RA,0.83,WeatherDisplay:10.37,2013-09-16 14:00:00,
2013-09-16 15:10:00,60.2,41.4,29.60,NW,325,15.0,35.0,50,0.00,,,0.83,WeatherDisplay:10.37,2013-09-16 14:10:00,
2013-09-16 15:20:00,59.5,41.4,29.59,NW,316,14.0,33.0,51,0.00,CLR,CLR,0.83,WeatherDisplay:10.37,2013-09-16 14:20:00,
2013-09-16 15:30:00,58.5,41.9,29.60,NW,322,15.0,35.0,54,0.01,RA,RA,0.84,WeatherDisplay:10.37,2013-09-16 14:30:00,
2013-09-16 15:40:00,56.1,41.5,29.60,NW,307,24.0,43.0,58,0.07,RA,RA,0.91,WeatherDisplay:10.37,2013-09-16 14:40:00,
2013-09-16 15:50:00,56.6,41.0,29.61,NW,315,20.0,39.0,56,0.00,CLR,CLR,0.91,WeatherDisplay:10.37,2013-09-16 14:50:00,
2013-09-16 16:00:00,58.6,42.0,29.61,NW,309,14.0,29.0,54,0.00,CLR,CLR,0.91,WeatherDisplay:10.37,2013-09-16 15:00:00,
2013-09-16 16:10:00,59.1,41.9,29.60,WNW,299,17.0,24.0,53,0.00,CLR,CLR,0.91,WeatherDisplay:10.37,2013-09-16 15:10:00,
2013-09-16 16:20:00,59.2,42.0,29.60,WNW,288,22.0,29.0,53,0.00,CLR,CLR,0.91,WeatherDisplay:10.37,2013-09-16 15:20:00,
2013-09-16 16:30:00,60.4,42.6,29.60,WNW,298,22.0,32.0,52,0.00,CLR,CLR,0.91,WeatherDisplay:10.37,2013-09-16 15:30:00,
2013-09-16 16:40:00,58.7,42.6,29.60,WNW,297,17.0,32.0,55,0.00,CLR,CLR,0.91,WeatherDisplay:10.37,2013-09-16 15:40:00,
2013-09-16 16:50:00,59.2,42.0,29.60,WNW,295,21.0,35.0,53,0.00,CLR,CLR,0.91,WeatherDisplay:10.37,2013-09-16 15:50:00,
2013-09-16 17:00:00,60.9,42.1,29.60,NW,317,20.0,31.0,50,0.00,CLR,CLR,0.91,WeatherDisplay:10.37,2013-09-16 16:00:00,
2013-09-16 17:10:00,60.4,42.7,29.60,NW,316,15.0,37.0,52,0.01,RA,RA,0.92,WeatherDisplay:10.37,2013-09-16 16:10:00,
2013-09-16 17:20:00,60.0,40.3,29.60,WNW,303,18.0,37.0,48,0.02,RA,RA,0.94,WeatherDisplay:10.37,2013-09-16 16:20:00,
2013-09-16 17:30:00,58.3,38.7,29.60,NW,315,16.0,35.0,48,0.00,CLR,CLR,0.94,WeatherDisplay:10.37,2013-09-16 16:30:00,
2013-09-16 17:40:00,58.4,41.4,29.61,NW,305,13.0,34.0,53,0.00,CLR,CLR,0.94,WeatherDisplay:10.37,2013-09-16 16:40:00,
2013-09-16 17:50:00,57.0,42.8,29.61,NNW,339,13.0,32.0,59,0.02,RA,RA,0.97,WeatherDisplay:10.37,2013-09-16 16:50:00,
2013-09-16 18:00:00,55.9,42.3,29.61,NNW,342,21.0,28.0,60,0.00,CLR,CLR,0.97,WeatherDisplay:10.37,2013-09-16 17:00:00,
2013-09-16 18:10:00,53.6,42.1,29.61,NW,305,16.0,28.0,65,0.00,CLR,CLR,0.97,WeatherDisplay:10.37,2013-09-16 17:10:00,
2013-09-16 18:20:00,53.8,41.5,29.60,NW,309,18.0,29.0,63,0.00,CLR,CLR,0.97,WeatherDisplay:10.37,2013-09-16 17:20:00,
2013-09-16 18:30:00,54.2,41.5,29.60,NW,315,22.0,30.0,62,0.00,CLR,CLR,0.97,WeatherDisplay:10.37,2013-09-16 17:30:00,
2013-09-16 18:40:00,54.3,42.0,29.61,NW,311,15.0,28.0,63,0.00,CLR,CLR,0.97,WeatherDisplay:10.37,2013-09-16 17:40:00,
2013-09-16 18:50:00,53.8,41.9,29.61,NW,307,15.0,26.0,64,0.00,CLR,CLR,0.97,WeatherDisplay:10.37,2013-09-16 17:50:00,
2013-09-16 19:00:00,54.1,41.8,29.61,NW,305,16.0,25.0,63,0.00,CLR,CLR,0.97,WeatherDisplay:10.37,2013-09-16 18:00:00,
2013-09-16 19:10:00,54.7,41.5,29.60,WNW,302,15.0,26.0,61,0.00,CLR,CLR,0.97,WeatherDisplay:10.37,2013-09-16 18:10:00,
2013-09-16 19:20:00,55.0,41.0,29.61,NW,310,18.0,29.0,59,0.00,CLR,CLR,0.97,WeatherDisplay:10.37,2013-09-16 18:20:00,
2013-09-16 19:30:00,54.3,39.8,29.60,NW,311,17.0,31.0,58,0.00,CLR,CLR,0.97,WeatherDisplay:10.37,2013-09-16 18:30:00,
2013-09-16 19:40:00,54.1,40.6,29.60,WNW,303,17.0,26.0,60,0.00,CLR,CLR,0.97,WeatherDisplay:10.37,2013-09-16 18:40:00,
2013-09-16 19:50:00,53.6,40.5,29.60,WNW,298,17.0,23.0,61,0.00,CLR,CLR,0.97,WeatherDisplay:10.37,2013-09-16 18:50:00,
2013-09-16 20:00:00,53.2,41.4,29.60,WNW,298,16.0,24.0,64,0.00,CLR,CLR,0.97,WeatherDisplay:10.37,2013-09-16 19:00:00,
2013-09-16 20:10:00,53.4,42.3,29.59,WNW,298,18.0,29.0,66,0.00,CLR,CLR,0.97,WeatherDisplay:10.37,2013-09-16 19:10:00,
2013-09-16 20:20:00,53.3,42.6,29.60,NW,305,20.0,30.0,67,0.00,CLR,CLR,0.97,WeatherDisplay:10.37,2013-09-16 19:20:00,
2013-09-16 20:30:00,53.2,41.0,29.59,WNW,283,18.0,31.0,63,0.00,CLR,CLR,0.97,WeatherDisplay:10.37,2013-09-16 19:30:00,
2013-09-16 20:40:00,53.4,41.1,29.59,WNW,284,20.0,30.0,63,0.00,CLR,CLR,0.97,WeatherDisplay:10.37,2013-09-16 19:40:00,
2013-09-16 20:50:00,53.2,41.4,29.60,WNW,292,18.0,30.0,64,0.00,CLR,CLR,0.97,WeatherDisplay:10.37,2013-09-16 19:50:00,
2013-09-16 21:00:00,53.1,41.2,29.60,West,281,20.0,26.0,64,0.00,CLR,CLR,0.97,WeatherDisplay:10.37,2013-09-16 20:00:00,
2013-09-16 21:10:00,53.2,41.3,29.60,NW,311,16.0,25.0,64,0.00,CLR,CLR,0.97,WeatherDisplay:10.37,2013-09-16 20:10:00,
2013-09-16 21:20:00,53.0,41.2,29.61,WNW,303,17.0,28.0,64,0.00,CLR,CLR,0.97,WeatherDisplay:10.37,2013-09-16 20:20:00,
2013-09-16 21:30:00,53.1,41.6,29.60,West,278,18.0,28.0,65,0.00,CLR,CLR,0.97,WeatherDisplay:10.37,2013-09-16 20:30:00,
2013-09-16 21:40:00,53.0,41.6,29.60,West,278,20.0,27.0,65,0.00,CLR,CLR,0.97,WeatherDisplay:10.37,2013-09-16 20:40:00,
2013-09-16 21:50:00,53.1,42.0,29.60,WNW,296,17.0,26.0,66,0.00,CLR,CLR,0.97,WeatherDisplay:10.37,2013-09-16 20:50:00,
2013-09-16 22:00:00,53.1,42.0,29.60,WNW,290,20.0,29.0,66,0.00,CLR,CLR,0.97,WeatherDisplay:10.37,2013-09-16 21:00:00,
2013-09-16 22:10:00,53.1,42.4,29.60,WNW,286,16.0,29.0,67,0.00,CLR,CLR,0.97,WeatherDisplay:10.37,2013-09-16 21:10:00,
2013-09-16 22:20:00,53.2,42.2,29.59,WNW,296,20.0,27.0,66,0.00,CLR,CLR,0.97,WeatherDisplay:10.37,2013-09-16 21:20:00,
2013-09-16 22:30:00,53.2,41.8,29.58,West,276,22.0,29.0,65,0.00,CLR,CLR,0.97,WeatherDisplay:10.37,2013-09-16 21:30:00,
2013-09-16 22:40:00,53.4,41.9,29.58,WNW,301,20.0,30.0,65,0.00,CLR,CLR,0.97,WeatherDisplay:10.37,2013-09-16 21:40:00,
2013-09-16 22:50:00,53.5,41.6,29.58,NW,305,18.0,29.0,64,0.00,CLR,CLR,0.97,WeatherDisplay:10.37,2013-09-16 21:50:00,
2013-09-16 23:00:00,53.6,41.3,29.58,NW,306,21.0,30.0,63,0.00,CLR,CLR,0.97,WeatherDisplay:10.37,2013-09-16 22:00:00,
2013-09-16 23:10:00,53.7,41.8,29.58,NW,304,21.0,30.0,64,0.00,CLR,CLR,0.97,WeatherDisplay:10.37,2013-09-16 22:10:00,
2013-09-16 23:20:00,53.6,41.7,29.58,NW,304,18.0,30.0,64,0.00,CLR,CLR,0.97,WeatherDisplay:10.37,2013-09-16 22:20:00,
2013-09-16 23:30:00,53.4,42.7,29.58,NW,308,15.0,23.0,67,0.00,CLR,CLR,0.97,WeatherDisplay:10.37,2013-09-16 22:30:00,
2013-09-16 23:40:00,53.4,43.5,29.59,WNW,285,16.0,22.0,69,0.00,CLR,CLR,0.97,WeatherDisplay:10.37,2013-09-16 22:40:00,
2013-09-16 23:50:00,53.2,42.6,29.58,WNW,290,12.0,20.0,67,0.00,CLR,CLR,0.97,WeatherDisplay:10.37,2013-09-16 22:50:00,